Latest Coastal Weather Observations for Thevenard

IDS60701

Issued at 12:21 pm CST Tuesday 28 June 2022 (issued every 10 minutes, with the page automatically refreshed every 10 minutes)

About coastal observations | Map of coastal stations | Coastal observations for SA | Marine services | Other Formats
Station Details ID: 018207 Name: THEVENARD NTC AWS Lat: -32.15 Lon: 133.64 Height: 5.0 m
Data from the previous 72 hours. | See also: Recent months for locations in South Australia
Date/Time
CST
Wind Sea
Height
m
Swell Vis
km
Cloud Weather Temp
°C
Press
MSL
hPa
Rain since
9am
mm
Dir  Spd
kts
Gust
kts
Height
m
Period
s
Dir
28/12:00pm N 14 18 - - - - - - - 15.1 1026.5 -
28/11:30am N 17 21 - - - - - - - 14.7 1026.9 -
28/11:00am N 15 19 - - - - - - - 14.1 1027.5 -
28/10:30am N 15 18 - - - - - - - 13.3 1027.8 -
28/10:00am N 17 20 - - - - - - - 12.1 1027.7 -
28/09:30am N 13 16 - - - - - - - 11.0 1028.1 -
28/09:00am NNE 11 14 - - - - - - - 9.7 1028.2 -
28/08:30am NNE 11 13 - - - - - - - 8.6 1028.2 -
28/08:00am NNE 11 15 - - - - - - - 9.1 1028.2 -
28/07:30am NNE 11 14 - - - - - - - 9.0 1028.1 -
28/07:00am NNE 10 12 - - - - - - - 8.4 1028.0 -
28/06:30am NNE 13 14 - - - - - - - 9.0 1027.8 -
28/06:00am NNE 14 16 - - - - - - - 9.3 1027.6 -
28/05:30am NNE 14 17 - - - - - - - 9.2 1027.3 -
28/05:00am NNE 13 17 - - - - - - - 9.7 1027.1 -
28/04:30am NNE 12 15 - - - - - - - 10.1 1027.2 -
28/04:00am NNE 11 14 - - - - - - - 10.0 1027.3 -
28/03:30am NNE 11 14 - - - - - - - 9.8 1027.4 -
28/03:00am NNE 11 14 - - - - - - - 10.0 1027.4 -
28/02:30am NNE 10 11 - - - - - - - 10.1 1027.9 -
28/02:00am NNE 9 12 - - - - - - - 10.8 1028.0 -
28/01:30am NE 7 12 - - - - - - - 10.8 1028.0 -
28/01:00am NE 8 11 - - - - - - - 11.0 1028.2 -
28/12:30am NNE 8 11 - - - - - - - 11.6 1028.5 -
28/12:00am NE 6 10 - - - - - - - 11.2 1028.8 -
 
Date/Time
CST
Wind Sea
Height
m
Swell Vis
km
Cloud Weather Temp
°C
Press
MSL
hPa
Rain since
9am
mm
Dir  Spd
kts
Gust
kts
Height
m
Period
s
Dir
27/11:30pm NE 7 10 - - - - - - - 11.6 1029.0 -
27/11:00pm NE 5 7 - - - - - - - 11.4 1029.2 -
27/10:30pm NE 6 9 - - - - - - - 11.8 1029.3 -
27/10:00pm ENE 6 10 - - - - - - - 11.9 1029.5 -
27/09:30pm E 6 9 - - - - - - - 12.6 1029.8 -
27/09:00pm SE 7 10 - - - - - - - 12.5 1030.0 -
27/08:30pm ESE 7 10 - - - - - - - 13.0 1030.1 -
27/08:00pm SE 8 10 - - - - - - - 13.3 1030.2 -
27/07:30pm SE 6 7 - - - - - - - 13.6 1030.3 -
27/07:00pm SE 6 8 - - - - - - - 13.9 1030.2 -
27/06:30pm SE 6 8 - - - - - - - 14.1 1030.0 -
27/06:00pm SE 6 9 - - - - - - - 14.1 1029.8 -
27/05:30pm SE 6 9 - - - - - - - 14.5 1029.6 -
27/05:00pm SE 6 8 - - - - - - - 14.7 1029.7 -
27/04:30pm SSE 6 9 - - - - - - - 14.8 1029.8 -
27/04:00pm SSE 7 9 - - - - - - - 14.7 1029.8 -
27/03:30pm SSE 6 9 - - - - - - - 14.8 1030.1 -
27/03:00pm S 7 9 - - - - - - - 14.8 1030.6 -
27/02:30pm SSW 7 9 - - - - - - - 14.8 1030.7 -
27/02:00pm SW 1 4 - - - - - - - 16.1 1031.1 -
27/01:30pm N 1 2 - - - - - - - 17.1 1031.6 -
27/01:00pm N 3 4 - - - - - - - 16.1 1031.9 -
27/12:30pm NNE 4 6 - - - - - - - 15.2 1032.5 -
27/12:00pm NNE 7 9 - - - - - - - 14.7 1033.0 -
27/11:30am NNE 4 6 - - - - - - - 13.8 1033.4 -
27/11:00am N 3 3 - - - - - - - 12.3 1034.0 -
27/10:30am NNE 4 5 - - - - - - - 10.8 1034.2 -
27/10:00am NNE 3 4 - - - - - - - 10.3 1034.5 -
27/09:30am NNE 4 5 - - - - - - - 9.4 1034.5 -
27/09:00am NNE 5 7 - - - - - - - 8.5 1034.1 -
27/08:30am NE 6 8 - - - - - - - 8.5 1033.8 -
27/08:00am NE 5 7 - - - - - - - 8.3 1033.6 -
27/07:30am NE 3 5 - - - - - - - 8.4 1033.5 -
27/07:00am NE 2 3 - - - - - - - 8.5 1033.4 -
27/06:30am ENE 2 3 - - - - - - - 9.0 1033.0 -
27/06:00am NNE 2 3 - - - - - - - 9.0 1032.7 -
27/05:30am NE 4 5 - - - - - - - 9.2 1032.6 -
27/05:00am ENE 4 5 - - - - - - - 9.9 1032.5 -
27/04:30am NE 3 4 - - - - - - - 9.6 1032.5 -
27/04:00am NE 4 5 - - - - - - - 9.3 1032.5 -
27/03:30am NE 4 5 - - - - - - - 9.6 1032.6 -
27/03:00am NE 4 4 - - - - - - - 9.7 1032.8 -
27/02:30am NE 3 4 - - - - - - - 9.7 1032.9 -
27/02:00am ENE 3 4 - - - - - - - 10.0 1033.0 -
27/01:30am NE 3 4 - - - - - - - 10.2 1033.0 -
27/01:00am ENE 3 4 - - - - - - - 10.5 1033.1 -
27/12:30am NE 2 3 - - - - - - - 10.3 1033.1 -
27/12:00am ESE 2 4 - - - - - - - 11.9 1032.9 -
 
Date/Time
CST
Wind Sea
Height
m
Swell Vis
km
Cloud Weather Temp
°C
Press
MSL
hPa
Rain since
9am
mm
Dir  Spd
kts
Gust
kts
Height
m
Period
s
Dir
26/11:30pm E 1 2 - - - - - - - 11.2 1032.9 -
26/11:00pm NNE 1 2 - - - - - - - 11.3 1032.8 -
26/10:30pm NE 3 3 - - - - - - - 11.7 1032.6 -
26/10:00pm NNE 2 3 - - - - - - - 11.7 1032.4 -
26/09:30pm NE 3 4 - - - - - - - 12.1 1032.3 -
26/09:00pm ENE 3 5 - - - - - - - 12.7 1032.0 -
26/08:30pm E 2 3 - - - - - - - 13.5 1031.8 -
26/08:00pm S 4 5 - - - - - - - 14.4 1031.7 -
26/07:30pm S 7 8 - - - - - - - 14.6 1031.6 -
26/07:00pm S 8 11 - - - - - - - 14.7 1031.4 -
26/06:30pm S 10 13 - - - - - - - 14.7 1031.3 -
26/06:00pm S 5 8 - - - - - - - 14.8 1030.8 -
26/05:30pm S 5 6 - - - - - - - 14.6 1030.5 -
26/05:00pm SSW 4 6 - - - - - - - 14.7 1030.3 -
26/04:30pm S 4 5 - - - - - - - 14.9 1030.2 -
26/04:00pm S 6 9 - - - - - - - 14.5 1030.0 -
26/03:30pm SSW 3 4 - - - - - - - 15.1 1029.9 -
26/03:00pm S 2 3 - - - - - - - 15.4 1029.9 -
26/02:30pm SSW 1 2 - - - - - - - 16.0 1029.7 -
26/02:00pm SSW 2 2 - - - - - - - 15.6 1029.6 -
26/01:30pm SW 3 3 - - - - - - - 15.7 1029.6 -
26/01:00pm WSW 2 2 - - - - - - - 15.3 1029.6 -
26/12:30pm WSW 4 6 - - - - - - - 14.7 1030.0 -
26/12:00pm W 1 3 - - - - - - - 14.1 1030.4 -
26/11:30am W 2 5 - - - - - - - 13.9 1030.7 -
26/11:00am NNE 3 4 - - - - - - - 13.4 1030.7 -
26/10:30am NNE 4 5 - - - - - - - 12.3 1030.7 -
26/10:00am N 4 5 - - - - - - - 12.1 1030.6 -
26/09:30am N 5 6 - - - - - - - 11.1 1030.3 -
26/09:00am N 6 7 - - - - - - - 10.3 1029.7 -
26/08:30am N 5 7 - - - - - - - 10.1 1029.6 -
26/08:00am N 5 7 - - - - - - - 10.1 1029.1 -
26/07:30am NNW 5 6 - - - - - - - 10.6 1028.9 -
26/07:00am N 5 6 - - - - - - - 10.7 1028.7 -
26/06:30am NNW 4 5 - - - - - - - 10.6 1028.1 -
26/06:00am N 4 6 - - - - - - - 10.1 1027.5 -
26/05:30am N 5 6 - - - - - - - 10.2 1027.2 -
26/05:00am N 5 6 - - - - - - - 10.2 1027.1 -
26/04:30am N 5 7 - - - - - - - 10.8 1027.0 -
26/04:00am NNW 5 7 - - - - - - - 11.2 1027.2 -
26/03:30am NNW 5 8 - - - - - - - 11.8 1027.0 -
26/03:00am NW 6 7 - - - - - - - 12.2 1026.8 -
26/02:30am NW 7 8 - - - - - - - 11.9 1027.0 -
26/02:00am NNW 7 9 - - - - - - - 11.6 1026.8 -
26/01:30am NNW 5 7 - - - - - - - 11.8 1026.9 -
26/01:00am N 4 5 - - - - - - - 11.6 1027.0 -
26/12:30am NNE 5 6 - - - - - - - 11.2 1027.0 -
26/12:00am NNE 5 6 - - - - - - - 11.5 1027.1 -
 
Date/Time
CST
Wind Sea
Height
m
Swell Vis
km
Cloud Weather Temp
°C
Press
MSL
hPa
Rain since
9am
mm
Dir  Spd
kts
Gust
kts
Height
m
Period
s
Dir
25/11:30pm N 5 6 - - - - - - - 11.7 1027.1 -
25/11:00pm N 4 6 - - - - - - - 11.9 1027.0 -
25/10:30pm N 4 5 - - - - - - - 12.0 1026.9 -
25/10:00pm N 4 6 - - - - - - - 12.7 1026.6 -

Other formats

Comma delimited format used in spreadsheet applications
http://www.bom.gov.au/fwo/IDS60701/IDS60701.95652.axf

JavaScript Object Notation format (JSON) in row-major order
http://www.bom.gov.au/fwo/IDS60701/IDS60701.95652.json

Data quality

Most of these data are generated automatically and are frequently updated. Quality checks on data are not normally performed. It is possible for incorrect values to appear. Refer to information at About Latest Weather Observations and please check the disclaimer before using these data.